sensor_id;sensor_type;location;lat;lon;timestamp;P1;durP1;ratioP1;P2;durP2;ratioP2
47349;SDS011;33088;51.982;5.872;2022-09-09T00:00:44;5.85;;;4.60;;
47349;SDS011;33088;51.982;5.872;2022-09-09T00:03:17;7.70;;;4.68;;
47349;SDS011;33088;51.982;5.872;2022-09-09T00:05:58;11.63;;;4.82;;
47349;SDS011;33088;51.982;5.872;2022-09-09T00:08:48;6.47;;;5.00;;
47349;SDS011;33088;51.982;5.872;2022-09-09T00:11:48;5.93;;;4.82;;
47349;SDS011;33088;51.982;5.872;2022-09-09T00:17:12;5.40;;;4.90;;
47349;SDS011;33088;51.982;5.872;2022-09-09T00:19:46;5.88;;;5.25;;
47349;SDS011;33088;51.982;5.872;2022-09-09T00:22:42;7.05;;;5.47;;
47349;SDS011;33088;51.982;5.872;2022-09-09T00:25:27;5.07;;;4.57;;
47349;SDS011;33088;51.982;5.872;2022-09-09T00:27:59;6.78;;;5.20;;
47349;SDS011;33088;51.982;5.872;2022-09-09T00:30:31;5.60;;;4.82;;
47349;SDS011;33088;51.982;5.872;2022-09-09T00:33:01;8.63;;;5.40;;
47349;SDS011;33088;51.982;5.872;2022-09-09T00:35:37;11.23;;;5.28;;
47349;SDS011;33088;51.982;5.872;2022-09-09T00:38:10;8.45;;;4.72;;
47349;SDS011;33088;51.982;5.872;2022-09-09T00:43:36;9.10;;;5.30;;
47349;SDS011;33088;51.982;5.872;2022-09-09T00:54:52;5.32;;;3.92;;
47349;SDS011;33088;51.982;5.872;2022-09-09T00:57:35;4.72;;;3.42;;
47349;SDS011;33088;51.982;5.872;2022-09-09T01:08:01;5.53;;;3.30;;
47349;SDS011;33088;51.982;5.872;2022-09-09T01:10:44;3.47;;;3.15;;
47349;SDS011;33088;51.982;5.872;2022-09-09T01:13:27;4.20;;;3.03;;
47349;SDS011;33088;51.982;5.872;2022-09-09T01:16:03;5.60;;;3.30;;
47349;SDS011;33088;51.982;5.872;2022-09-09T01:18:36;3.40;;;3.00;;
47349;SDS011;33088;51.982;5.872;2022-09-09T01:26:51;4.35;;;2.80;;
47349;SDS011;33088;51.982;5.872;2022-09-09T01:29:24;5.47;;;2.78;;
47349;SDS011;33088;51.982;5.872;2022-09-09T01:34:27;3.75;;;2.28;;
47349;SDS011;33088;51.982;5.872;2022-09-09T01:39:37;4.70;;;3.05;;
47349;SDS011;33088;51.982;5.872;2022-09-09T01:42:09;6.63;;;2.45;;
47349;SDS011;33088;51.982;5.872;2022-09-09T01:44:37;4.70;;;2.83;;
47349;SDS011;33088;51.982;5.872;2022-09-09T01:47:04;2.88;;;2.53;;
47349;SDS011;33088;51.982;5.872;2022-09-09T01:49:31;3.67;;;2.60;;
47349;SDS011;33088;51.982;5.872;2022-09-09T01:52:02;4.78;;;2.75;;
47349;SDS011;33088;51.982;5.872;2022-09-09T01:54:35;3.65;;;2.58;;
47349;SDS011;33088;51.982;5.872;2022-09-09T02:08:07;4.10;;;2.83;;
47349;SDS011;33088;51.982;5.872;2022-09-09T02:13:35;4.13;;;3.30;;
47349;SDS011;33088;51.982;5.872;2022-09-09T02:16:07;3.50;;;2.38;;
47349;SDS011;33088;51.982;5.872;2022-09-09T02:18:40;8.13;;;3.03;;
47349;SDS011;33088;51.982;5.872;2022-09-09T02:21:07;3.45;;;2.78;;
47349;SDS011;33088;51.982;5.872;2022-09-09T02:23:37;3.63;;;3.13;;
47349;SDS011;33088;51.982;5.872;2022-09-09T02:26:07;3.28;;;2.97;;
47349;SDS011;33088;51.982;5.872;2022-09-09T02:28:35;3.38;;;3.08;;
47349;SDS011;33088;51.982;5.872;2022-09-09T02:31:03;5.10;;;3.20;;
47349;SDS011;33088;51.982;5.872;2022-09-09T02:33:37;5.05;;;3.22;;
47349;SDS011;33088;51.982;5.872;2022-09-09T02:36:08;4.20;;;3.15;;
47349;SDS011;33088;51.982;5.872;2022-09-09T02:38:38;4.45;;;3.65;;
47349;SDS011;33088;51.982;5.872;2022-09-09T02:41:12;4.38;;;3.67;;
47349;SDS011;33088;51.982;5.872;2022-09-09T02:43:37;5.80;;;3.95;;
47349;SDS011;33088;51.982;5.872;2022-09-09T02:54:21;5.72;;;4.53;;
47349;SDS011;33088;51.982;5.872;2022-09-09T02:56:53;5.05;;;3.95;;
47349;SDS011;33088;51.982;5.872;2022-09-09T02:59:24;4.80;;;4.30;;
47349;SDS011;33088;51.982;5.872;2022-09-09T03:01:52;6.07;;;4.43;;
47349;SDS011;33088;51.982;5.872;2022-09-09T03:04:18;4.75;;;3.58;;
47349;SDS011;33088;51.982;5.872;2022-09-09T03:06:44;6.10;;;4.07;;
47349;SDS011;33088;51.982;5.872;2022-09-09T03:09:16;5.50;;;3.55;;
47349;SDS011;33088;51.982;5.872;2022-09-09T03:11:42;6.07;;;3.88;;
47349;SDS011;33088;51.982;5.872;2022-09-09T03:14:08;4.00;;;3.67;;
47349;SDS011;33088;51.982;5.872;2022-09-09T03:16:36;4.50;;;3.90;;
47349;SDS011;33088;51.982;5.872;2022-09-09T03:19:02;6.45;;;4.07;;
47349;SDS011;33088;51.982;5.872;2022-09-09T03:21:29;5.85;;;4.25;;
47349;SDS011;33088;51.982;5.872;2022-09-09T03:23:56;11.55;;;5.22;;
47349;SDS011;33088;51.982;5.872;2022-09-09T03:26:22;5.28;;;4.20;;
47349;SDS011;33088;51.982;5.872;2022-09-09T03:28:48;6.68;;;4.85;;
47349;SDS011;33088;51.982;5.872;2022-09-09T03:31:17;4.28;;;3.88;;
47349;SDS011;33088;51.982;5.872;2022-09-09T03:33:44;7.70;;;4.30;;
47349;SDS011;33088;51.982;5.872;2022-09-09T03:36:12;6.43;;;4.72;;
47349;SDS011;33088;51.982;5.872;2022-09-09T03:38:39;6.63;;;4.95;;
47349;SDS011;33088;51.982;5.872;2022-09-09T03:41:05;6.45;;;3.90;;
47349;SDS011;33088;51.982;5.872;2022-09-09T03:43:32;6.13;;;4.55;;
47349;SDS011;33088;51.982;5.872;2022-09-09T03:45:59;8.02;;;5.20;;
47349;SDS011;33088;51.982;5.872;2022-09-09T03:48:26;4.60;;;4.20;;
47349;SDS011;33088;51.982;5.872;2022-09-09T03:50:54;8.40;;;4.97;;
47349;SDS011;33088;51.982;5.872;2022-09-09T03:53:23;8.23;;;5.18;;
47349;SDS011;33088;51.982;5.872;2022-09-09T03:55:51;7.60;;;5.50;;
47349;SDS011;33088;51.982;5.872;2022-09-09T03:58:22;10.20;;;5.25;;
47349;SDS011;33088;51.982;5.872;2022-09-09T04:00:56;6.38;;;5.68;;
47349;SDS011;33088;51.982;5.872;2022-09-09T04:03:24;5.25;;;3.95;;
47349;SDS011;33088;51.982;5.872;2022-09-09T04:05:51;8.60;;;4.65;;
47349;SDS011;33088;51.982;5.872;2022-09-09T04:08:19;11.10;;;5.07;;
47349;SDS011;33088;51.982;5.872;2022-09-09T04:10:46;5.53;;;4.55;;
47349;SDS011;33088;51.982;5.872;2022-09-09T04:13:13;9.13;;;4.85;;
47349;SDS011;33088;51.982;5.872;2022-09-09T04:15:40;9.10;;;5.07;;
47349;SDS011;33088;51.982;5.872;2022-09-09T04:18:06;7.40;;;4.55;;
47349;SDS011;33088;51.982;5.872;2022-09-09T04:20:32;6.28;;;4.65;;
47349;SDS011;33088;51.982;5.872;2022-09-09T04:22:58;8.05;;;4.28;;
47349;SDS011;33088;51.982;5.872;2022-09-09T04:25:24;4.63;;;3.97;;
47349;SDS011;33088;51.982;5.872;2022-09-09T04:27:54;9.90;;;4.75;;
47349;SDS011;33088;51.982;5.872;2022-09-09T04:30:20;5.63;;;4.20;;
47349;SDS011;33088;51.982;5.872;2022-09-09T04:32:46;12.15;;;4.82;;
47349;SDS011;33088;51.982;5.872;2022-09-09T04:35:13;9.23;;;4.15;;
47349;SDS011;33088;51.982;5.872;2022-09-09T04:37:39;4.22;;;3.75;;
47349;SDS011;33088;51.982;5.872;2022-09-09T04:40:06;9.38;;;4.00;;
47349;SDS011;33088;51.982;5.872;2022-09-09T04:42:35;5.97;;;4.18;;
47349;SDS011;33088;51.982;5.872;2022-09-09T04:45:02;5.55;;;4.30;;
47349;SDS011;33088;51.982;5.872;2022-09-09T04:47:28;5.70;;;4.25;;
47349;SDS011;33088;51.982;5.872;2022-09-09T04:49:54;6.70;;;4.22;;
47349;SDS011;33088;51.982;5.872;2022-09-09T04:52:20;5.22;;;3.72;;
47349;SDS011;33088;51.982;5.872;2022-09-09T04:54:46;5.55;;;4.13;;
47349;SDS011;33088;51.982;5.872;2022-09-09T04:57:13;8.15;;;4.30;;
47349;SDS011;33088;51.982;5.872;2022-09-09T04:59:41;7.07;;;4.28;;
47349;SDS011;33088;51.982;5.872;2022-09-09T05:02:07;5.43;;;3.45;;
47349;SDS011;33088;51.982;5.872;2022-09-09T05:04:33;5.93;;;3.80;;
47349;SDS011;33088;51.982;5.872;2022-09-09T05:06:59;5.93;;;4.35;;
47349;SDS011;33088;51.982;5.872;2022-09-09T05:09:25;5.78;;;3.58;;
47349;SDS011;33088;51.982;5.872;2022-09-09T05:11:51;7.90;;;3.30;;
47349;SDS011;33088;51.982;5.872;2022-09-09T05:14:25;12.68;;;4.95;;
47349;SDS011;33088;51.982;5.872;2022-09-09T05:16:51;8.90;;;4.20;;
47349;SDS011;33088;51.982;5.872;2022-09-09T05:19:17;6.93;;;4.25;;
47349;SDS011;33088;51.982;5.872;2022-09-09T05:21:47;8.52;;;5.07;;
47349;SDS011;33088;51.982;5.872;2022-09-09T05:24:26;6.10;;;3.83;;
47349;SDS011;33088;51.982;5.872;2022-09-09T05:26:57;12.27;;;3.50;;
47349;SDS011;33088;51.982;5.872;2022-09-09T05:29:25;12.80;;;4.80;;
47349;SDS011;33088;51.982;5.872;2022-09-09T05:31:51;8.48;;;4.30;;
47349;SDS011;33088;51.982;5.872;2022-09-09T05:34:19;9.93;;;4.28;;
47349;SDS011;33088;51.982;5.872;2022-09-09T05:36:46;12.48;;;6.10;;
47349;SDS011;33088;51.982;5.872;2022-09-09T05:39:12;9.57;;;4.07;;
47349;SDS011;33088;51.982;5.872;2022-09-09T05:41:38;9.63;;;4.68;;
47349;SDS011;33088;51.982;5.872;2022-09-09T05:44:05;10.57;;;4.88;;
47349;SDS011;33088;51.982;5.872;2022-09-09T05:46:34;9.85;;;3.50;;
47349;SDS011;33088;51.982;5.872;2022-09-09T05:49:01;9.57;;;4.07;;
47349;SDS011;33088;51.982;5.872;2022-09-09T05:51:30;7.30;;;3.92;;
47349;SDS011;33088;51.982;5.872;2022-09-09T05:53:57;6.80;;;3.38;;
47349;SDS011;33088;51.982;5.872;2022-09-09T05:56:30;11.40;;;4.13;;
47349;SDS011;33088;51.982;5.872;2022-09-09T05:58:58;8.77;;;4.47;;
47349;SDS011;33088;51.982;5.872;2022-09-09T06:01:25;9.18;;;4.30;;
47349;SDS011;33088;51.982;5.872;2022-09-09T06:04:00;12.73;;;4.93;;
47349;SDS011;33088;51.982;5.872;2022-09-09T06:06:29;8.10;;;4.20;;
47349;SDS011;33088;51.982;5.872;2022-09-09T06:08:58;11.10;;;4.72;;
47349;SDS011;33088;51.982;5.872;2022-09-09T06:11:27;8.95;;;4.80;;
47349;SDS011;33088;51.982;5.872;2022-09-09T06:13:59;9.20;;;4.22;;
47349;SDS011;33088;51.982;5.872;2022-09-09T06:16:29;10.27;;;4.75;;
47349;SDS011;33088;51.982;5.872;2022-09-09T06:18:58;9.50;;;4.15;;
47349;SDS011;33088;51.982;5.872;2022-09-09T06:23:59;13.73;;;4.18;;
47349;SDS011;33088;51.982;5.872;2022-09-09T06:26:26;9.70;;;4.85;;
47349;SDS011;33088;51.982;5.872;2022-09-09T06:28:55;9.30;;;4.53;;
47349;SDS011;33088;51.982;5.872;2022-09-09T06:31:24;8.52;;;3.75;;
47349;SDS011;33088;51.982;5.872;2022-09-09T06:33:57;19.15;;;4.97;;
47349;SDS011;33088;51.982;5.872;2022-09-09T06:36:25;15.18;;;4.35;;
47349;SDS011;33088;51.982;5.872;2022-09-09T06:38:52;14.30;;;4.38;;
47349;SDS011;33088;51.982;5.872;2022-09-09T06:41:19;7.68;;;4.28;;
47349;SDS011;33088;51.982;5.872;2022-09-09T06:43:47;12.77;;;4.70;;
47349;SDS011;33088;51.982;5.872;2022-09-09T06:46:19;11.82;;;4.35;;
47349;SDS011;33088;51.982;5.872;2022-09-09T06:48:53;9.98;;;3.75;;
47349;SDS011;33088;51.982;5.872;2022-09-09T06:51:25;9.88;;;3.35;;
47349;SDS011;33088;51.982;5.872;2022-09-09T06:53:56;11.43;;;3.42;;
47349;SDS011;33088;51.982;5.872;2022-09-09T06:58:55;13.68;;;3.20;;
47349;SDS011;33088;51.982;5.872;2022-09-09T07:01:26;6.40;;;3.00;;
47349;SDS011;33088;51.982;5.872;2022-09-09T07:03:56;9.73;;;3.33;;
47349;SDS011;33088;51.982;5.872;2022-09-09T07:06:25;12.30;;;3.30;;
47349;SDS011;33088;51.982;5.872;2022-09-09T07:08:54;7.72;;;3.40;;
47349;SDS011;33088;51.982;5.872;2022-09-09T07:11:31;8.00;;;3.95;;
47349;SDS011;33088;51.982;5.872;2022-09-09T07:13:59;8.93;;;3.38;;
47349;SDS011;33088;51.982;5.872;2022-09-09T07:16:25;19.67;;;4.00;;
47349;SDS011;33088;51.982;5.872;2022-09-09T07:18:53;10.65;;;2.78;;
47349;SDS011;33088;51.982;5.872;2022-09-09T07:21:27;7.55;;;3.03;;
47349;SDS011;33088;51.982;5.872;2022-09-09T07:23:54;9.18;;;2.72;;
47349;SDS011;33088;51.982;5.872;2022-09-09T07:26:22;8.45;;;3.88;;
47349;SDS011;33088;51.982;5.872;2022-09-09T07:28:51;10.85;;;4.15;;
47349;SDS011;33088;51.982;5.872;2022-09-09T07:31:22;4.68;;;2.75;;
47349;SDS011;33088;51.982;5.872;2022-09-09T07:33:53;10.48;;;2.60;;
47349;SDS011;33088;51.982;5.872;2022-09-09T07:36:29;10.38;;;3.65;;
47349;SDS011;33088;51.982;5.872;2022-09-09T07:38:59;10.00;;;2.75;;
47349;SDS011;33088;51.982;5.872;2022-09-09T07:41:29;8.02;;;3.03;;
47349;SDS011;33088;51.982;5.872;2022-09-09T07:44:07;8.38;;;2.70;;
47349;SDS011;33088;51.982;5.872;2022-09-09T07:46:39;10.82;;;2.92;;
47349;SDS011;33088;51.982;5.872;2022-09-09T07:49:08;7.28;;;3.47;;
47349;SDS011;33088;51.982;5.872;2022-09-09T07:51:35;9.25;;;2.97;;
47349;SDS011;33088;51.982;5.872;2022-09-09T07:54:07;10.63;;;3.42;;
47349;SDS011;33088;51.982;5.872;2022-09-09T07:56:37;7.40;;;3.00;;
47349;SDS011;33088;51.982;5.872;2022-09-09T07:59:05;13.20;;;4.10;;
47349;SDS011;33088;51.982;5.872;2022-09-09T08:01:39;6.97;;;2.70;;
47349;SDS011;33088;51.982;5.872;2022-09-09T08:04:11;6.78;;;2.50;;
47349;SDS011;33088;51.982;5.872;2022-09-09T08:06:44;9.05;;;2.42;;
47349;SDS011;33088;51.982;5.872;2022-09-09T08:09:12;17.23;;;3.72;;
47349;SDS011;33088;51.982;5.872;2022-09-09T08:11:39;9.52;;;3.95;;
47349;SDS011;33088;51.982;5.872;2022-09-09T08:14:06;9.82;;;2.72;;
47349;SDS011;33088;51.982;5.872;2022-09-09T08:16:35;9.23;;;2.15;;
47349;SDS011;33088;51.982;5.872;2022-09-09T08:19:04;10.13;;;2.75;;
47349;SDS011;33088;51.982;5.872;2022-09-09T08:21:31;8.32;;;2.00;;
47349;SDS011;33088;51.982;5.872;2022-09-09T08:23:59;15.68;;;2.90;;
47349;SDS011;33088;51.982;5.872;2022-09-09T08:26:28;6.80;;;2.30;;
47349;SDS011;33088;51.982;5.872;2022-09-09T08:28:55;11.52;;;3.45;;
47349;SDS011;33088;51.982;5.872;2022-09-09T08:31:24;7.85;;;2.35;;
47349;SDS011;33088;51.982;5.872;2022-09-09T08:33:54;10.25;;;2.30;;
47349;SDS011;33088;51.982;5.872;2022-09-09T08:36:23;9.45;;;3.08;;
47349;SDS011;33088;51.982;5.872;2022-09-09T08:38:52;9.77;;;2.92;;
47349;SDS011;33088;51.982;5.872;2022-09-09T08:50:26;5.03;;;1.60;;
47349;SDS011;33088;51.982;5.872;2022-09-09T08:53:02;6.25;;;2.00;;
47349;SDS011;33088;51.982;5.872;2022-09-09T08:55:39;8.73;;;2.92;;
47349;SDS011;33088;51.982;5.872;2022-09-09T08:58:34;10.55;;;2.85;;
47349;SDS011;33088;51.982;5.872;2022-09-09T09:04:11;9.00;;;2.00;;
47349;SDS011;33088;51.982;5.872;2022-09-09T09:09:33;13.00;;;2.50;;
47349;SDS011;33088;51.982;5.872;2022-09-09T09:12:41;7.75;;;1.73;;
47349;SDS011;33088;51.982;5.872;2022-09-09T09:15:25;13.55;;;2.10;;
47349;SDS011;33088;51.982;5.872;2022-09-09T09:17:56;6.00;;;1.35;;
47349;SDS011;33088;51.982;5.872;2022-09-09T09:20:27;4.07;;;1.67;;
47349;SDS011;33088;51.982;5.872;2022-09-09T09:23:04;9.95;;;1.85;;
47349;SDS011;33088;51.982;5.872;2022-09-09T09:25:32;5.60;;;1.80;;
47349;SDS011;33088;51.982;5.872;2022-09-09T09:28:09;7.25;;;2.00;;
47349;SDS011;33088;51.982;5.872;2022-09-09T09:31:11;6.82;;;1.85;;
47349;SDS011;33088;51.982;5.872;2022-09-09T09:33:51;6.63;;;1.92;;
47349;SDS011;33088;51.982;5.872;2022-09-09T09:36:33;10.05;;;2.03;;
47349;SDS011;33088;51.982;5.872;2022-09-09T09:39:06;8.48;;;1.70;;
47349;SDS011;33088;51.982;5.872;2022-09-09T09:41:35;8.82;;;2.10;;
47349;SDS011;33088;51.982;5.872;2022-09-09T09:44:04;8.52;;;2.65;;
47349;SDS011;33088;51.982;5.872;2022-09-09T09:46:45;12.35;;;2.95;;
47349;SDS011;33088;51.982;5.872;2022-09-09T09:49:12;12.13;;;2.80;;
47349;SDS011;33088;51.982;5.872;2022-09-09T09:51:39;7.25;;;1.73;;
47349;SDS011;33088;51.982;5.872;2022-09-09T09:56:51;6.75;;;2.30;;
47349;SDS011;33088;51.982;5.872;2022-09-09T09:59:22;9.02;;;1.65;;
47349;SDS011;33088;51.982;5.872;2022-09-09T10:02:05;6.75;;;1.58;;
47349;SDS011;33088;51.982;5.872;2022-09-09T10:04:46;10.13;;;2.20;;
47349;SDS011;33088;51.982;5.872;2022-09-09T10:07:15;7.70;;;2.58;;
47349;SDS011;33088;51.982;5.872;2022-09-09T10:09:44;7.13;;;2.05;;
47349;SDS011;33088;51.982;5.872;2022-09-09T10:20:12;5.07;;;1.90;;
47349;SDS011;33088;51.982;5.872;2022-09-09T10:22:50;6.03;;;1.52;;
47349;SDS011;33088;51.982;5.872;2022-09-09T10:30:31;7.97;;;1.70;;
47349;SDS011;33088;51.982;5.872;2022-09-09T10:38:42;11.77;;;1.88;;
47349;SDS011;33088;51.982;5.872;2022-09-09T10:41:26;8.70;;;1.98;;
47349;SDS011;33088;51.982;5.872;2022-09-09T10:44:33;9.45;;;2.00;;
47349;SDS011;33088;51.982;5.872;2022-09-09T10:55:35;8.77;;;1.77;;
47349;SDS011;33088;51.982;5.872;2022-09-09T10:58:04;5.28;;;1.70;;
47349;SDS011;33088;51.982;5.872;2022-09-09T11:00:42;8.93;;;2.10;;
47349;SDS011;33088;51.982;5.872;2022-09-09T11:03:19;7.60;;;1.90;;
47349;SDS011;33088;51.982;5.872;2022-09-09T11:05:51;5.35;;;1.70;;
47349;SDS011;33088;51.982;5.872;2022-09-09T11:08:23;6.75;;;2.13;;
47349;SDS011;33088;51.982;5.872;2022-09-09T11:10:59;7.03;;;1.65;;
47349;SDS011;33088;51.982;5.872;2022-09-09T11:16:20;13.60;;;1.65;;
47349;SDS011;33088;51.982;5.872;2022-09-09T11:19:17;6.35;;;1.52;;
47349;SDS011;33088;51.982;5.872;2022-09-09T11:22:05;7.50;;;1.92;;
47349;SDS011;33088;51.982;5.872;2022-09-09T11:24:59;4.95;;;1.80;;
47349;SDS011;33088;51.982;5.872;2022-09-09T11:27:51;7.78;;;2.05;;
47349;SDS011;33088;51.982;5.872;2022-09-09T11:30:43;6.13;;;2.50;;
47349;SDS011;33088;51.982;5.872;2022-09-09T11:36:35;5.05;;;2.03;;
47349;SDS011;33088;51.982;5.872;2022-09-09T11:39:28;5.07;;;1.98;;
47349;SDS011;33088;51.982;5.872;2022-09-09T11:44:41;7.25;;;2.45;;
47349;SDS011;33088;51.982;5.872;2022-09-09T11:49:49;6.25;;;1.83;;
47349;SDS011;33088;51.982;5.872;2022-09-09T11:52:20;6.43;;;1.98;;
47349;SDS011;33088;51.982;5.872;2022-09-09T11:54:54;8.13;;;2.97;;
47349;SDS011;33088;51.982;5.872;2022-09-09T11:57:24;6.60;;;2.15;;
47349;SDS011;33088;51.982;5.872;2022-09-09T11:59:55;6.15;;;2.00;;
47349;SDS011;33088;51.982;5.872;2022-09-09T12:02:25;7.50;;;1.92;;
47349;SDS011;33088;51.982;5.872;2022-09-09T12:04:56;5.40;;;1.52;;
47349;SDS011;33088;51.982;5.872;2022-09-09T12:10:29;7.95;;;1.90;;
47349;SDS011;33088;51.982;5.872;2022-09-09T12:13:07;4.65;;;2.13;;
47349;SDS011;33088;51.982;5.872;2022-09-09T12:15:46;4.75;;;1.42;;
47349;SDS011;33088;51.982;5.872;2022-09-09T12:18:24;9.88;;;1.90;;
47349;SDS011;33088;51.982;5.872;2022-09-09T12:23:40;4.38;;;1.80;;
47349;SDS011;33088;51.982;5.872;2022-09-09T12:32:02;2.63;;;1.58;;
47349;SDS011;33088;51.982;5.872;2022-09-09T12:34:32;3.92;;;1.33;;
47349;SDS011;33088;51.982;5.872;2022-09-09T12:37:18;6.85;;;1.83;;
47349;SDS011;33088;51.982;5.872;2022-09-09T12:40:04;2.97;;;1.50;;
47349;SDS011;33088;51.982;5.872;2022-09-09T12:42:50;5.40;;;1.50;;
47349;SDS011;33088;51.982;5.872;2022-09-09T12:45:17;5.40;;;1.90;;
47349;SDS011;33088;51.982;5.872;2022-09-09T12:50:29;4.55;;;1.83;;
47349;SDS011;33088;51.982;5.872;2022-09-09T12:53:22;10.80;;;2.55;;
47349;SDS011;33088;51.982;5.872;2022-09-09T12:55:58;5.43;;;1.70;;
47349;SDS011;33088;51.982;5.872;2022-09-09T12:58:27;5.32;;;1.40;;
47349;SDS011;33088;51.982;5.872;2022-09-09T13:00:58;3.13;;;2.00;;
47349;SDS011;33088;51.982;5.872;2022-09-09T13:03:25;3.08;;;1.52;;
47349;SDS011;33088;51.982;5.872;2022-09-09T13:05:52;7.07;;;1.90;;
47349;SDS011;33088;51.982;5.872;2022-09-09T13:08:19;3.40;;;2.17;;
47349;SDS011;33088;51.982;5.872;2022-09-09T13:11:01;3.50;;;1.63;;
47349;SDS011;33088;51.982;5.872;2022-09-09T13:13:30;2.53;;;1.60;;
47349;SDS011;33088;51.982;5.872;2022-09-09T13:16:05;5.50;;;1.98;;
47349;SDS011;33088;51.982;5.872;2022-09-09T13:18:43;4.80;;;2.28;;
47349;SDS011;33088;51.982;5.872;2022-09-09T13:21:08;5.75;;;2.08;;
47349;SDS011;33088;51.982;5.872;2022-09-09T13:23:35;3.30;;;1.55;;
47349;SDS011;33088;51.982;5.872;2022-09-09T13:26:05;5.43;;;2.25;;
47349;SDS011;33088;51.982;5.872;2022-09-09T13:28:46;6.15;;;2.28;;
47349;SDS011;33088;51.982;5.872;2022-09-09T13:31:19;4.40;;;1.90;;
47349;SDS011;33088;51.982;5.872;2022-09-09T13:33:53;6.75;;;2.10;;
47349;SDS011;33088;51.982;5.872;2022-09-09T13:36:27;6.32;;;2.03;;
47349;SDS011;33088;51.982;5.872;2022-09-09T13:38:58;5.13;;;1.35;;
47349;SDS011;33088;51.982;5.872;2022-09-09T13:41:28;7.10;;;2.25;;
47349;SDS011;33088;51.982;5.872;2022-09-09T13:43:59;6.28;;;2.65;;
47349;SDS011;33088;51.982;5.872;2022-09-09T13:49:00;6.40;;;2.15;;
47349;SDS011;33088;51.982;5.872;2022-09-09T13:51:41;3.80;;;1.90;;
47349;SDS011;33088;51.982;5.872;2022-09-09T13:54:15;3.95;;;1.92;;
47349;SDS011;33088;51.982;5.872;2022-09-09T13:56:42;5.45;;;1.85;;
47349;SDS011;33088;51.982;5.872;2022-09-09T13:59:16;6.07;;;2.15;;
47349;SDS011;33088;51.982;5.872;2022-09-09T14:01:44;3.58;;;1.95;;
47349;SDS011;33088;51.982;5.872;2022-09-09T14:04:11;6.03;;;2.03;;
47349;SDS011;33088;51.982;5.872;2022-09-09T14:06:37;7.38;;;1.85;;
47349;SDS011;33088;51.982;5.872;2022-09-09T14:09:04;5.78;;;1.83;;
47349;SDS011;33088;51.982;5.872;2022-09-09T14:11:31;6.43;;;2.08;;
47349;SDS011;33088;51.982;5.872;2022-09-09T14:13:56;4.05;;;1.45;;
47349;SDS011;33088;51.982;5.872;2022-09-09T14:16:22;4.78;;;1.35;;
47349;SDS011;33088;51.982;5.872;2022-09-09T14:18:48;4.18;;;1.58;;
47349;SDS011;33088;51.982;5.872;2022-09-09T14:21:13;3.42;;;1.45;;
47349;SDS011;33088;51.982;5.872;2022-09-09T14:23:40;4.15;;;1.40;;
47349;SDS011;33088;51.982;5.872;2022-09-09T14:26:07;5.38;;;1.50;;
47349;SDS011;33088;51.982;5.872;2022-09-09T14:28:33;2.63;;;1.38;;
47349;SDS011;33088;51.982;5.872;2022-09-09T14:31:01;3.75;;;1.60;;
47349;SDS011;33088;51.982;5.872;2022-09-09T14:33:29;6.47;;;1.65;;
47349;SDS011;33088;51.982;5.872;2022-09-09T14:35:55;4.30;;;1.80;;
47349;SDS011;33088;51.982;5.872;2022-09-09T14:38:26;6.13;;;1.30;;
47349;SDS011;33088;51.982;5.872;2022-09-09T14:40:54;7.13;;;1.63;;
47349;SDS011;33088;51.982;5.872;2022-09-09T14:43:21;6.38;;;2.13;;
47349;SDS011;33088;51.982;5.872;2022-09-09T14:45:47;5.78;;;1.65;;
47349;SDS011;33088;51.982;5.872;2022-09-09T14:48:21;3.33;;;1.23;;
47349;SDS011;33088;51.982;5.872;2022-09-09T14:50:47;5.13;;;1.35;;
47349;SDS011;33088;51.982;5.872;2022-09-09T14:53:16;3.47;;;1.50;;
47349;SDS011;33088;51.982;5.872;2022-09-09T14:55:42;6.57;;;1.95;;
47349;SDS011;33088;51.982;5.872;2022-09-09T14:58:07;4.10;;;1.90;;
47349;SDS011;33088;51.982;5.872;2022-09-09T15:00:33;5.93;;;1.75;;
47349;SDS011;33088;51.982;5.872;2022-09-09T15:02:59;6.90;;;2.13;;
47349;SDS011;33088;51.982;5.872;2022-09-09T15:05:25;8.75;;;1.50;;
47349;SDS011;33088;51.982;5.872;2022-09-09T15:07:50;6.15;;;1.60;;
47349;SDS011;33088;51.982;5.872;2022-09-09T15:10:16;5.22;;;1.60;;
47349;SDS011;33088;51.982;5.872;2022-09-09T15:12:47;6.55;;;1.95;;
47349;SDS011;33088;51.982;5.872;2022-09-09T15:15:13;4.57;;;2.53;;
47349;SDS011;33088;51.982;5.872;2022-09-09T15:17:38;2.97;;;1.65;;
47349;SDS011;33088;51.982;5.872;2022-09-09T15:20:04;6.85;;;1.63;;
47349;SDS011;33088;51.982;5.872;2022-09-09T15:22:31;5.30;;;1.83;;
47349;SDS011;33088;51.982;5.872;2022-09-09T15:24:57;7.28;;;2.03;;
47349;SDS011;33088;51.982;5.872;2022-09-09T15:27:23;4.95;;;2.03;;
47349;SDS011;33088;51.982;5.872;2022-09-09T15:29:49;7.78;;;1.95;;
47349;SDS011;33088;51.982;5.872;2022-09-09T15:32:16;6.97;;;2.10;;
47349;SDS011;33088;51.982;5.872;2022-09-09T15:34:43;4.78;;;1.77;;
47349;SDS011;33088;51.982;5.872;2022-09-09T15:37:12;6.80;;;1.88;;
47349;SDS011;33088;51.982;5.872;2022-09-09T15:39:38;5.57;;;1.90;;
47349;SDS011;33088;51.982;5.872;2022-09-09T15:42:05;6.63;;;2.35;;
47349;SDS011;33088;51.982;5.872;2022-09-09T15:44:39;8.15;;;2.40;;
47349;SDS011;33088;51.982;5.872;2022-09-09T15:47:07;5.68;;;2.10;;
47349;SDS011;33088;51.982;5.872;2022-09-09T15:49:37;7.63;;;2.63;;
47349;SDS011;33088;51.982;5.872;2022-09-09T15:52:03;6.85;;;2.65;;
47349;SDS011;33088;51.982;5.872;2022-09-09T15:54:35;7.40;;;2.83;;
47349;SDS011;33088;51.982;5.872;2022-09-09T15:57:04;10.73;;;3.33;;
47349;SDS011;33088;51.982;5.872;2022-09-09T15:59:31;7.50;;;2.47;;
47349;SDS011;33088;51.982;5.872;2022-09-09T16:01:59;13.23;;;4.75;;
47349;SDS011;33088;51.982;5.872;2022-09-09T16:04:28;13.80;;;3.22;;
47349;SDS011;33088;51.982;5.872;2022-09-09T16:06:55;4.35;;;1.20;;
47349;SDS011;33088;51.982;5.872;2022-09-09T16:09:28;4.13;;;2.00;;
47349;SDS011;33088;51.982;5.872;2022-09-09T16:12:04;5.57;;;1.80;;
47349;SDS011;33088;51.982;5.872;2022-09-09T16:14:39;3.58;;;2.33;;
47349;SDS011;33088;51.982;5.872;2022-09-09T16:17:06;5.47;;;2.70;;
47349;SDS011;33088;51.982;5.872;2022-09-09T16:19:34;3.50;;;2.60;;
47349;SDS011;33088;51.982;5.872;2022-09-09T16:22:00;4.03;;;2.60;;
47349;SDS011;33088;51.982;5.872;2022-09-09T16:24:29;5.80;;;3.55;;
47349;SDS011;33088;51.982;5.872;2022-09-09T16:26:55;6.43;;;3.95;;
47349;SDS011;33088;51.982;5.872;2022-09-09T16:29:22;5.57;;;3.78;;
47349;SDS011;33088;51.982;5.872;2022-09-09T16:31:50;5.47;;;3.30;;
47349;SDS011;33088;51.982;5.872;2022-09-09T16:34:17;4.90;;;3.35;;
47349;SDS011;33088;51.982;5.872;2022-09-09T16:36:44;7.55;;;3.15;;
47349;SDS011;33088;51.982;5.872;2022-09-09T16:39:11;7.68;;;3.53;;
47349;SDS011;33088;51.982;5.872;2022-09-09T16:41:39;9.02;;;3.45;;
47349;SDS011;33088;51.982;5.872;2022-09-09T16:44:06;5.05;;;3.78;;
47349;SDS011;33088;51.982;5.872;2022-09-09T16:46:40;10.05;;;2.63;;
47349;SDS011;33088;51.982;5.872;2022-09-09T16:49:11;8.57;;;3.90;;
47349;SDS011;33088;51.982;5.872;2022-09-09T16:54:12;4.47;;;2.50;;
47349;SDS011;33088;51.982;5.872;2022-09-09T16:56:41;4.65;;;2.30;;
47349;SDS011;33088;51.982;5.872;2022-09-09T16:59:15;8.23;;;2.50;;
47349;SDS011;33088;51.982;5.872;2022-09-09T17:01:45;3.30;;;2.47;;
47349;SDS011;33088;51.982;5.872;2022-09-09T17:04:14;2.53;;;2.10;;
47349;SDS011;33088;51.982;5.872;2022-09-09T17:06:49;4.32;;;3.00;;
47349;SDS011;33088;51.982;5.872;2022-09-09T17:09:17;3.83;;;3.00;;
47349;SDS011;33088;51.982;5.872;2022-09-09T17:11:43;6.43;;;2.58;;
47349;SDS011;33088;51.982;5.872;2022-09-09T17:14:11;3.65;;;2.72;;
47349;SDS011;33088;51.982;5.872;2022-09-09T17:16:40;3.50;;;2.22;;
47349;SDS011;33088;51.982;5.872;2022-09-09T17:19:06;7.05;;;2.92;;
47349;SDS011;33088;51.982;5.872;2022-09-09T17:21:34;5.82;;;2.83;;
47349;SDS011;33088;51.982;5.872;2022-09-09T17:24:00;3.50;;;2.63;;